sensor_id;sensor_type;location;lat;lon;timestamp;P1;durP1;ratioP1;P2;durP2;ratioP2
2480;SDS011;57396;48.742;9.128;2022-08-03T00:01:20;3.47;;;3.17;;
2480;SDS011;57396;48.742;9.128;2022-08-03T00:03:45;5.37;;;4.23;;
2480;SDS011;57396;48.742;9.128;2022-08-03T00:06:11;4.30;;;3.30;;
2480;SDS011;57396;48.742;9.128;2022-08-03T00:08:36;4.30;;;3.60;;
2480;SDS011;57396;48.742;9.128;2022-08-03T00:11:02;4.00;;;3.70;;
2480;SDS011;57396;48.742;9.128;2022-08-03T00:13:27;3.70;;;3.40;;
2480;SDS011;57396;48.742;9.128;2022-08-03T00:15:53;4.70;;;4.00;;
2480;SDS011;57396;48.742;9.128;2022-08-03T00:18:18;3.37;;;3.07;;
2480;SDS011;57396;48.742;9.128;2022-08-03T00:20:44;4.07;;;3.33;;
2480;SDS011;57396;48.742;9.128;2022-08-03T00:23:10;7.83;;;3.00;;
2480;SDS011;57396;48.742;9.128;2022-08-03T00:25:35;4.80;;;3.67;;
2480;SDS011;57396;48.742;9.128;2022-08-03T00:28:04;3.50;;;3.27;;
2480;SDS011;57396;48.742;9.128;2022-08-03T00:30:30;3.80;;;3.40;;
2480;SDS011;57396;48.742;9.128;2022-08-03T00:32:56;10.10;;;3.33;;
2480;SDS011;57396;48.742;9.128;2022-08-03T00:35:21;3.20;;;3.00;;
2480;SDS011;57396;48.742;9.128;2022-08-03T00:37:47;2.97;;;2.77;;
2480;SDS011;57396;48.742;9.128;2022-08-03T00:40:13;4.70;;;3.27;;
2480;SDS011;57396;48.742;9.128;2022-08-03T00:42:46;3.47;;;3.03;;
2480;SDS011;57396;48.742;9.128;2022-08-03T00:45:15;4.00;;;3.60;;
2480;SDS011;57396;48.742;9.128;2022-08-03T00:47:47;3.40;;;3.10;;
2480;SDS011;57396;48.742;9.128;2022-08-03T00:50:13;4.00;;;3.60;;
2480;SDS011;57396;48.742;9.128;2022-08-03T00:52:39;3.87;;;2.93;;
2480;SDS011;57396;48.742;9.128;2022-08-03T00:55:05;4.20;;;3.20;;
2480;SDS011;57396;48.742;9.128;2022-08-03T00:57:31;3.97;;;3.30;;
2480;SDS011;57396;48.742;9.128;2022-08-03T00:59:56;3.80;;;3.20;;
2480;SDS011;57396;48.742;9.128;2022-08-03T01:02:24;4.97;;;3.53;;
2480;SDS011;57396;48.742;9.128;2022-08-03T01:04:50;3.33;;;3.13;;
2480;SDS011;57396;48.742;9.128;2022-08-03T01:10:05;4.23;;;3.57;;
2480;SDS011;57396;48.742;9.128;2022-08-03T01:12:54;5.10;;;3.43;;
2480;SDS011;57396;48.742;9.128;2022-08-03T01:15:24;3.93;;;3.63;;
2480;SDS011;57396;48.742;9.128;2022-08-03T01:18:02;4.20;;;3.50;;
2480;SDS011;57396;48.742;9.128;2022-08-03T01:20:32;5.57;;;3.57;;
2480;SDS011;57396;48.742;9.128;2022-08-03T01:23:25;3.50;;;3.30;;
2480;SDS011;57396;48.742;9.128;2022-08-03T01:26:18;5.13;;;3.53;;
2480;SDS011;57396;48.742;9.128;2022-08-03T01:31:28;5.20;;;3.30;;
2480;SDS011;57396;48.742;9.128;2022-08-03T01:34:01;4.87;;;3.63;;
2480;SDS011;57396;48.742;9.128;2022-08-03T01:36:35;4.03;;;3.63;;
2480;SDS011;57396;48.742;9.128;2022-08-03T01:39:04;4.10;;;3.80;;
2480;SDS011;57396;48.742;9.128;2022-08-03T01:42:18;3.50;;;3.20;;
2480;SDS011;57396;48.742;9.128;2022-08-03T01:44:23;6.97;;;3.47;;
2480;SDS011;57396;48.742;9.128;2022-08-03T01:46:50;6.63;;;3.73;;
2480;SDS011;57396;48.742;9.128;2022-08-03T01:49:16;6.80;;;3.50;;
2480;SDS011;57396;48.742;9.128;2022-08-03T01:51:42;4.00;;;3.60;;
2480;SDS011;57396;48.742;9.128;2022-08-03T01:54:09;4.00;;;3.70;;
2480;SDS011;57396;48.742;9.128;2022-08-03T01:56:35;6.77;;;4.30;;
2480;SDS011;57396;48.742;9.128;2022-08-03T01:59:02;4.00;;;3.60;;
2480;SDS011;57396;48.742;9.128;2022-08-03T02:01:28;4.13;;;3.83;;
2480;SDS011;57396;48.742;9.128;2022-08-03T02:03:54;4.60;;;3.63;;
2480;SDS011;57396;48.742;9.128;2022-08-03T02:06:21;4.37;;;3.17;;
2480;SDS011;57396;48.742;9.128;2022-08-03T02:08:47;4.07;;;3.63;;
2480;SDS011;57396;48.742;9.128;2022-08-03T02:11:13;10.17;;;3.80;;
2480;SDS011;57396;48.742;9.128;2022-08-03T02:13:38;3.87;;;3.50;;
2480;SDS011;57396;48.742;9.128;2022-08-03T02:16:04;4.47;;;3.40;;
2480;SDS011;57396;48.742;9.128;2022-08-03T02:18:31;4.03;;;3.60;;
2480;SDS011;57396;48.742;9.128;2022-08-03T02:21:00;6.73;;;3.67;;
2480;SDS011;57396;48.742;9.128;2022-08-03T02:23:27;3.97;;;3.57;;
2480;SDS011;57396;48.742;9.128;2022-08-03T02:25:56;3.37;;;3.13;;
2480;SDS011;57396;48.742;9.128;2022-08-03T02:28:25;4.10;;;3.80;;
2480;SDS011;57396;48.742;9.128;2022-08-03T02:30:55;3.27;;;2.97;;
2480;SDS011;57396;48.742;9.128;2022-08-03T02:33:26;8.33;;;3.00;;
2480;SDS011;57396;48.742;9.128;2022-08-03T02:35:54;3.70;;;3.30;;
2480;SDS011;57396;48.742;9.128;2022-08-03T02:38:22;3.57;;;3.27;;
2480;SDS011;57396;48.742;9.128;2022-08-03T02:40:51;3.37;;;3.07;;
2480;SDS011;57396;48.742;9.128;2022-08-03T02:43:19;3.80;;;3.50;;
2480;SDS011;57396;48.742;9.128;2022-08-03T02:45:47;3.63;;;3.33;;
2480;SDS011;57396;48.742;9.128;2022-08-03T02:48:17;3.57;;;3.23;;
2480;SDS011;57396;48.742;9.128;2022-08-03T02:50:51;3.37;;;3.07;;
2480;SDS011;57396;48.742;9.128;2022-08-03T02:53:18;5.23;;;2.97;;
2480;SDS011;57396;48.742;9.128;2022-08-03T02:55:45;3.33;;;3.13;;
2480;SDS011;57396;48.742;9.128;2022-08-03T02:58:10;4.07;;;3.20;;
2480;SDS011;57396;48.742;9.128;2022-08-03T03:00:37;4.77;;;3.63;;
2480;SDS011;57396;48.742;9.128;2022-08-03T03:03:03;6.67;;;3.63;;
2480;SDS011;57396;48.742;9.128;2022-08-03T03:05:30;4.97;;;3.70;;
2480;SDS011;57396;48.742;9.128;2022-08-03T03:07:55;5.73;;;4.17;;
2480;SDS011;57396;48.742;9.128;2022-08-03T03:10:22;3.30;;;3.10;;
2480;SDS011;57396;48.742;9.128;2022-08-03T03:12:49;3.93;;;3.63;;
2480;SDS011;57396;48.742;9.128;2022-08-03T03:15:16;4.20;;;3.80;;
2480;SDS011;57396;48.742;9.128;2022-08-03T03:17:42;5.53;;;3.60;;
2480;SDS011;57396;48.742;9.128;2022-08-03T03:20:07;6.60;;;3.73;;
2480;SDS011;57396;48.742;9.128;2022-08-03T03:22:33;7.33;;;3.60;;
2480;SDS011;57396;48.742;9.128;2022-08-03T03:25:00;4.07;;;3.77;;
2480;SDS011;57396;48.742;9.128;2022-08-03T03:27:26;4.87;;;3.70;;
2480;SDS011;57396;48.742;9.128;2022-08-03T03:29:51;6.23;;;3.70;;
2480;SDS011;57396;48.742;9.128;2022-08-03T03:32:17;4.20;;;3.57;;
2480;SDS011;57396;48.742;9.128;2022-08-03T03:34:42;3.90;;;3.60;;
2480;SDS011;57396;48.742;9.128;2022-08-03T03:37:09;3.77;;;3.30;;
2480;SDS011;57396;48.742;9.128;2022-08-03T03:39:34;4.13;;;3.60;;
2480;SDS011;57396;48.742;9.128;2022-08-03T03:42:00;6.27;;;3.20;;
2480;SDS011;57396;48.742;9.128;2022-08-03T03:44:27;6.33;;;3.73;;
2480;SDS011;57396;48.742;9.128;2022-08-03T03:46:53;3.27;;;3.07;;
2480;SDS011;57396;48.742;9.128;2022-08-03T03:49:19;4.60;;;3.57;;
2480;SDS011;57396;48.742;9.128;2022-08-03T03:51:45;5.90;;;3.80;;
2480;SDS011;57396;48.742;9.128;2022-08-03T03:54:10;4.67;;;3.70;;
2480;SDS011;57396;48.742;9.128;2022-08-03T03:56:36;4.57;;;3.87;;
2480;SDS011;57396;48.742;9.128;2022-08-03T03:59:01;4.23;;;3.83;;
2480;SDS011;57396;48.742;9.128;2022-08-03T04:01:27;4.10;;;3.70;;
2480;SDS011;57396;48.742;9.128;2022-08-03T04:03:52;7.17;;;4.33;;
2480;SDS011;57396;48.742;9.128;2022-08-03T04:06:18;4.17;;;3.87;;
2480;SDS011;57396;48.742;9.128;2022-08-03T04:09:02;4.80;;;4.00;;
2480;SDS011;57396;48.742;9.128;2022-08-03T04:14:31;5.63;;;3.90;;
2480;SDS011;57396;48.742;9.128;2022-08-03T04:16:59;4.60;;;4.20;;
2480;SDS011;57396;48.742;9.128;2022-08-03T04:19:31;5.20;;;4.00;;
2480;SDS011;57396;48.742;9.128;2022-08-03T04:22:01;11.63;;;4.53;;
2480;SDS011;57396;48.742;9.128;2022-08-03T04:24:31;6.87;;;4.40;;
2480;SDS011;57396;48.742;9.128;2022-08-03T04:26:59;4.33;;;3.90;;
2480;SDS011;57396;48.742;9.128;2022-08-03T04:29:26;4.60;;;4.20;;
2480;SDS011;57396;48.742;9.128;2022-08-03T04:31:53;4.60;;;4.07;;
2480;SDS011;57396;48.742;9.128;2022-08-03T04:34:19;5.13;;;4.30;;
2480;SDS011;57396;48.742;9.128;2022-08-03T04:36:47;6.73;;;4.27;;
2480;SDS011;57396;48.742;9.128;2022-08-03T04:39:18;4.80;;;4.37;;
2480;SDS011;57396;48.742;9.128;2022-08-03T04:41:49;6.33;;;3.97;;
2480;SDS011;57396;48.742;9.128;2022-08-03T04:44:17;4.93;;;4.20;;
2480;SDS011;57396;48.742;9.128;2022-08-03T04:46:43;5.67;;;4.40;;
2480;SDS011;57396;48.742;9.128;2022-08-03T04:49:09;5.33;;;4.47;;
2480;SDS011;57396;48.742;9.128;2022-08-03T04:51:36;6.83;;;4.50;;
2480;SDS011;57396;48.742;9.128;2022-08-03T04:54:03;5.33;;;4.83;;
2480;SDS011;57396;48.742;9.128;2022-08-03T04:56:29;4.73;;;4.27;;
2480;SDS011;57396;48.742;9.128;2022-08-03T04:58:54;8.40;;;4.37;;
2480;SDS011;57396;48.742;9.128;2022-08-03T05:01:20;6.10;;;4.87;;
2480;SDS011;57396;48.742;9.128;2022-08-03T05:03:46;5.47;;;4.83;;
2480;SDS011;57396;48.742;9.128;2022-08-03T05:06:11;5.37;;;4.87;;
2480;SDS011;57396;48.742;9.128;2022-08-03T05:08:37;7.97;;;5.00;;
2480;SDS011;57396;48.742;9.128;2022-08-03T05:11:03;5.73;;;5.10;;
2480;SDS011;57396;48.742;9.128;2022-08-03T05:13:28;5.40;;;4.90;;
2480;SDS011;57396;48.742;9.128;2022-08-03T05:15:54;9.20;;;4.90;;
2480;SDS011;57396;48.742;9.128;2022-08-03T05:18:19;7.53;;;5.00;;
2480;SDS011;57396;48.742;9.128;2022-08-03T05:20:45;7.40;;;5.13;;
2480;SDS011;57396;48.742;9.128;2022-08-03T05:23:10;5.43;;;4.93;;
2480;SDS011;57396;48.742;9.128;2022-08-03T05:25:36;11.77;;;5.63;;
2480;SDS011;57396;48.742;9.128;2022-08-03T05:28:01;6.43;;;5.13;;
2480;SDS011;57396;48.742;9.128;2022-08-03T05:30:27;10.73;;;5.20;;
2480;SDS011;57396;48.742;9.128;2022-08-03T05:32:52;9.50;;;5.60;;
2480;SDS011;57396;48.742;9.128;2022-08-03T05:35:18;8.97;;;5.13;;
2480;SDS011;57396;48.742;9.128;2022-08-03T05:37:43;5.60;;;5.00;;
2480;SDS011;57396;48.742;9.128;2022-08-03T05:40:09;5.63;;;4.23;;
2480;SDS011;57396;48.742;9.128;2022-08-03T05:42:38;5.83;;;4.90;;
2480;SDS011;57396;48.742;9.128;2022-08-03T05:45:03;5.33;;;4.83;;
2480;SDS011;57396;48.742;9.128;2022-08-03T05:47:39;6.00;;;4.70;;
2480;SDS011;57396;48.742;9.128;2022-08-03T05:50:05;4.90;;;4.40;;
2480;SDS011;57396;48.742;9.128;2022-08-03T05:52:31;7.70;;;5.30;;
2480;SDS011;57396;48.742;9.128;2022-08-03T05:54:57;5.10;;;4.60;;
2480;SDS011;57396;48.742;9.128;2022-08-03T05:57:22;9.60;;;4.50;;
2480;SDS011;57396;48.742;9.128;2022-08-03T05:59:47;8.63;;;4.50;;
2480;SDS011;57396;48.742;9.128;2022-08-03T06:02:13;4.30;;;3.90;;
2480;SDS011;57396;48.742;9.128;2022-08-03T06:04:38;5.20;;;3.80;;
2480;SDS011;57396;48.742;9.128;2022-08-03T06:07:04;7.90;;;4.10;;
2480;SDS011;57396;48.742;9.128;2022-08-03T06:09:29;6.10;;;4.23;;
2480;SDS011;57396;48.742;9.128;2022-08-03T06:11:55;7.10;;;4.40;;
2480;SDS011;57396;48.742;9.128;2022-08-03T06:14:20;4.20;;;3.73;;
2480;SDS011;57396;48.742;9.128;2022-08-03T06:16:45;4.70;;;3.47;;
2480;SDS011;57396;48.742;9.128;2022-08-03T06:19:11;4.80;;;3.47;;
2480;SDS011;57396;48.742;9.128;2022-08-03T06:21:36;5.77;;;3.70;;
2480;SDS011;57396;48.742;9.128;2022-08-03T06:24:02;3.70;;;3.40;;
2480;SDS011;57396;48.742;9.128;2022-08-03T06:26:27;8.90;;;3.50;;
2480;SDS011;57396;48.742;9.128;2022-08-03T06:28:53;4.47;;;3.33;;
2480;SDS011;57396;48.742;9.128;2022-08-03T06:31:19;3.57;;;3.27;;
2480;SDS011;57396;48.742;9.128;2022-08-03T06:33:50;3.67;;;3.37;;
2480;SDS011;57396;48.742;9.128;2022-08-03T06:36:16;3.37;;;3.00;;
2480;SDS011;57396;48.742;9.128;2022-08-03T06:38:41;4.20;;;3.80;;
2480;SDS011;57396;48.742;9.128;2022-08-03T06:41:07;3.23;;;2.93;;
2480;SDS011;57396;48.742;9.128;2022-08-03T06:43:32;3.63;;;3.10;;
2480;SDS011;57396;48.742;9.128;2022-08-03T06:46:01;4.43;;;2.67;;
2480;SDS011;57396;48.742;9.128;2022-08-03T06:48:27;5.20;;;2.87;;
2480;SDS011;57396;48.742;9.128;2022-08-03T06:50:53;2.80;;;2.37;;
2480;SDS011;57396;48.742;9.128;2022-08-03T06:53:18;3.70;;;2.77;;
2480;SDS011;57396;48.742;9.128;2022-08-03T06:55:44;5.07;;;2.80;;
2480;SDS011;57396;48.742;9.128;2022-08-03T06:58:09;3.30;;;3.00;;
2480;SDS011;57396;48.742;9.128;2022-08-03T07:00:35;2.80;;;2.50;;
2480;SDS011;57396;48.742;9.128;2022-08-03T07:03:00;3.00;;;2.80;;
2480;SDS011;57396;48.742;9.128;2022-08-03T07:05:26;3.03;;;2.73;;
2480;SDS011;57396;48.742;9.128;2022-08-03T07:07:55;3.07;;;2.77;;
2480;SDS011;57396;48.742;9.128;2022-08-03T07:10:26;2.70;;;2.50;;
2480;SDS011;57396;48.742;9.128;2022-08-03T07:12:51;2.53;;;2.33;;
2480;SDS011;57396;48.742;9.128;2022-08-03T07:15:17;4.03;;;2.87;;
2480;SDS011;57396;48.742;9.128;2022-08-03T07:17:43;2.70;;;2.50;;
2480;SDS011;57396;48.742;9.128;2022-08-03T07:20:08;2.63;;;2.40;;
2480;SDS011;57396;48.742;9.128;2022-08-03T07:22:34;2.80;;;2.40;;
2480;SDS011;57396;48.742;9.128;2022-08-03T07:25:00;2.50;;;2.30;;
2480;SDS011;57396;48.742;9.128;2022-08-03T07:27:25;2.50;;;2.30;;
2480;SDS011;57396;48.742;9.128;2022-08-03T07:29:53;3.20;;;2.90;;
2480;SDS011;57396;48.742;9.128;2022-08-03T07:32:19;10.40;;;2.50;;
2480;SDS011;57396;48.742;9.128;2022-08-03T07:34:45;2.60;;;2.40;;
2480;SDS011;57396;48.742;9.128;2022-08-03T07:37:10;3.03;;;2.83;;
2480;SDS011;57396;48.742;9.128;2022-08-03T07:39:35;9.27;;;2.57;;
2480;SDS011;57396;48.742;9.128;2022-08-03T07:42:01;6.47;;;2.63;;
2480;SDS011;57396;48.742;9.128;2022-08-03T07:44:26;6.00;;;2.50;;
2480;SDS011;57396;48.742;9.128;2022-08-03T07:46:52;6.47;;;2.70;;
2480;SDS011;57396;48.742;9.128;2022-08-03T07:49:17;2.77;;;2.17;;
2480;SDS011;57396;48.742;9.128;2022-08-03T07:51:43;4.80;;;2.37;;
2480;SDS011;57396;48.742;9.128;2022-08-03T07:54:08;5.17;;;1.97;;
2480;SDS011;57396;48.742;9.128;2022-08-03T07:56:36;4.70;;;2.40;;
2480;SDS011;57396;48.742;9.128;2022-08-03T07:59:02;4.07;;;1.90;;
2480;SDS011;57396;48.742;9.128;2022-08-03T08:01:28;3.47;;;2.07;;
2480;SDS011;57396;48.742;9.128;2022-08-03T08:03:53;6.80;;;1.80;;
2480;SDS011;57396;48.742;9.128;2022-08-03T08:06:21;2.13;;;1.60;;
2480;SDS011;57396;48.742;9.128;2022-08-03T08:08:47;4.37;;;2.23;;
2480;SDS011;57396;48.742;9.128;2022-08-03T08:11:12;3.50;;;1.80;;
2480;SDS011;57396;48.742;9.128;2022-08-03T08:13:38;8.37;;;2.30;;
2480;SDS011;57396;48.742;9.128;2022-08-03T08:16:04;4.70;;;1.90;;
2480;SDS011;57396;48.742;9.128;2022-08-03T08:18:30;5.57;;;2.00;;
2480;SDS011;57396;48.742;9.128;2022-08-03T08:20:56;2.30;;;2.10;;
2480;SDS011;57396;48.742;9.128;2022-08-03T08:23:22;1.27;;;1.13;;
2480;SDS011;57396;48.742;9.128;2022-08-03T08:25:48;1.63;;;1.53;;
2480;SDS011;57396;48.742;9.128;2022-08-03T08:28:17;2.73;;;1.30;;
2480;SDS011;57396;48.742;9.128;2022-08-03T08:30:43;4.70;;;1.40;;
2480;SDS011;57396;48.742;9.128;2022-08-03T08:33:09;1.80;;;1.60;;
2480;SDS011;57396;48.742;9.128;2022-08-03T08:35:34;2.87;;;1.70;;
2480;SDS011;57396;48.742;9.128;2022-08-03T08:38:00;3.53;;;1.57;;
2480;SDS011;57396;48.742;9.128;2022-08-03T08:40:26;4.73;;;1.60;;
2480;SDS011;57396;48.742;9.128;2022-08-03T08:42:52;1.60;;;1.40;;
2480;SDS011;57396;48.742;9.128;2022-08-03T08:45:17;1.63;;;1.53;;
2480;SDS011;57396;48.742;9.128;2022-08-03T08:47:44;3.20;;;1.60;;
2480;SDS011;57396;48.742;9.128;2022-08-03T08:50:11;1.87;;;1.30;;
2480;SDS011;57396;48.742;9.128;2022-08-03T08:52:38;1.50;;;1.40;;
2480;SDS011;57396;48.742;9.128;2022-08-03T08:55:06;1.30;;;1.20;;
2480;SDS011;57396;48.742;9.128;2022-08-03T08:57:34;1.40;;;1.30;;
2480;SDS011;57396;48.742;9.128;2022-08-03T09:00:03;1.40;;;1.30;;
2480;SDS011;57396;48.742;9.128;2022-08-03T09:02:34;2.00;;;1.53;;
2480;SDS011;57396;48.742;9.128;2022-08-03T09:05:00;1.30;;;1.13;;
2480;SDS011;57396;48.742;9.128;2022-08-03T09:07:26;4.07;;;1.73;;
2480;SDS011;57396;48.742;9.128;2022-08-03T09:09:52;2.77;;;1.70;;
2480;SDS011;57396;48.742;9.128;2022-08-03T09:12:17;4.70;;;1.80;;
2480;SDS011;57396;48.742;9.128;2022-08-03T09:14:43;2.17;;;1.50;;
2480;SDS011;57396;48.742;9.128;2022-08-03T09:17:08;1.20;;;1.10;;
2480;SDS011;57396;48.742;9.128;2022-08-03T09:19:34;2.17;;;1.30;;
2480;SDS011;57396;48.742;9.128;2022-08-03T09:24:35;1.70;;;1.30;;
2480;SDS011;57396;48.742;9.128;2022-08-03T09:27:01;12.20;;;1.93;;
2480;SDS011;57396;48.742;9.128;2022-08-03T09:29:33;8.20;;;1.63;;
2480;SDS011;57396;48.742;9.128;2022-08-03T09:32:02;3.73;;;1.50;;
2480;SDS011;57396;48.742;9.128;2022-08-03T09:34:28;2.40;;;1.20;;
2480;SDS011;57396;48.742;9.128;2022-08-03T09:36:54;2.50;;;1.50;;
2480;SDS011;57396;48.742;9.128;2022-08-03T09:39:25;4.30;;;1.40;;
2480;SDS011;57396;48.742;9.128;2022-08-03T09:42:04;1.60;;;1.50;;
2480;SDS011;57396;48.742;9.128;2022-08-03T09:44:39;1.50;;;1.40;;
2480;SDS011;57396;48.742;9.128;2022-08-03T09:47:10;1.93;;;1.47;;
2480;SDS011;57396;48.742;9.128;2022-08-03T09:49:39;3.30;;;1.07;;
2480;SDS011;57396;48.742;9.128;2022-08-03T09:52:12;2.70;;;1.53;;
2480;SDS011;57396;48.742;9.128;2022-08-03T09:54:38;3.00;;;1.47;;
2480;SDS011;57396;48.742;9.128;2022-08-03T09:57:04;2.10;;;1.50;;
2480;SDS011;57396;48.742;9.128;2022-08-03T09:59:30;2.37;;;1.10;;
2480;SDS011;57396;48.742;9.128;2022-08-03T10:01:57;3.20;;;1.33;;
2480;SDS011;57396;48.742;9.128;2022-08-03T10:04:23;1.57;;;1.20;;
2480;SDS011;57396;48.742;9.128;2022-08-03T10:07:03;3.93;;;1.40;;
2480;SDS011;57396;48.742;9.128;2022-08-03T10:09:33;7.83;;;1.33;;
2480;SDS011;57396;48.742;9.128;2022-08-03T10:12:12;3.03;;;1.13;;
2480;SDS011;57396;48.742;9.128;2022-08-03T10:14:38;1.57;;;1.33;;
2480;SDS011;57396;48.742;9.128;2022-08-03T10:17:05;5.00;;;1.13;;
2480;SDS011;57396;48.742;9.128;2022-08-03T10:19:31;4.30;;;1.13;;
2480;SDS011;57396;48.742;9.128;2022-08-03T10:22:00;1.83;;;1.20;;
2480;SDS011;57396;48.742;9.128;2022-08-03T10:24:29;3.40;;;1.30;;
2480;SDS011;57396;48.742;9.128;2022-08-03T10:26:56;2.10;;;1.30;;
2480;SDS011;57396;48.742;9.128;2022-08-03T10:29:27;2.23;;;1.20;;
2480;SDS011;57396;48.742;9.128;2022-08-03T10:31:55;2.27;;;1.10;;
2480;SDS011;57396;48.742;9.128;2022-08-03T10:34:23;4.80;;;1.30;;
2480;SDS011;57396;48.742;9.128;2022-08-03T10:36:55;2.80;;;1.33;;
2480;SDS011;57396;48.742;9.128;2022-08-03T10:39:23;1.50;;;1.40;;
2480;SDS011;57396;48.742;9.128;2022-08-03T10:41:52;6.20;;;1.37;;
2480;SDS011;57396;48.742;9.128;2022-08-03T10:44:22;1.33;;;1.23;;
2480;SDS011;57396;48.742;9.128;2022-08-03T10:46:48;1.63;;;1.40;;
2480;SDS011;57396;48.742;9.128;2022-08-03T10:49:15;1.60;;;1.33;;
2480;SDS011;57396;48.742;9.128;2022-08-03T10:51:43;4.33;;;1.57;;
2480;SDS011;57396;48.742;9.128;2022-08-03T11:00:10;7.43;;;1.47;;
2480;SDS011;57396;48.742;9.128;2022-08-03T11:05:26;1.30;;;1.20;;
2480;SDS011;57396;48.742;9.128;2022-08-03T11:10:55;3.30;;;1.47;;
2480;SDS011;57396;48.742;9.128;2022-08-03T11:13:25;3.80;;;1.40;;
2480;SDS011;57396;48.742;9.128;2022-08-03T11:15:53;1.70;;;1.60;;
2480;SDS011;57396;48.742;9.128;2022-08-03T11:18:19;2.07;;;1.40;;
2480;SDS011;57396;48.742;9.128;2022-08-03T11:20:46;1.37;;;1.27;;
2480;SDS011;57396;48.742;9.128;2022-08-03T11:23:12;1.67;;;1.50;;
2480;SDS011;57396;48.742;9.128;2022-08-03T11:28:42;1.50;;;1.30;;
2480;SDS011;57396;48.742;9.128;2022-08-03T11:34:02;1.70;;;1.60;;
2480;SDS011;57396;48.742;9.128;2022-08-03T11:39:40;4.50;;;1.50;;
2480;SDS011;57396;48.742;9.128;2022-08-03T11:44:54;1.83;;;1.50;;
2480;SDS011;57396;48.742;9.128;2022-08-03T11:47:21;1.80;;;1.60;;
2480;SDS011;57396;48.742;9.128;2022-08-03T11:49:56;3.40;;;1.53;;
2480;SDS011;57396;48.742;9.128;2022-08-03T11:52:24;2.60;;;1.43;;
2480;SDS011;57396;48.742;9.128;2022-08-03T11:54:50;8.00;;;1.20;;
2480;SDS011;57396;48.742;9.128;2022-08-03T11:57:29;3.23;;;1.80;;
2480;SDS011;57396;48.742;9.128;2022-08-03T11:59:56;3.53;;;1.40;;
2480;SDS011;57396;48.742;9.128;2022-08-03T12:02:21;1.90;;;1.80;;
2480;SDS011;57396;48.742;9.128;2022-08-03T12:04:54;1.60;;;1.40;;
2480;SDS011;57396;48.742;9.128;2022-08-03T12:07:29;1.63;;;1.50;;
2480;SDS011;57396;48.742;9.128;2022-08-03T12:10:11;1.77;;;1.57;;
2480;SDS011;57396;48.742;9.128;2022-08-03T12:12:38;1.77;;;1.50;;
2480;SDS011;57396;48.742;9.128;2022-08-03T12:15:04;2.20;;;1.30;;
2480;SDS011;57396;48.742;9.128;2022-08-03T12:17:37;1.83;;;1.30;;
2480;SDS011;57396;48.742;9.128;2022-08-03T12:20:05;2.60;;;1.37;;
2480;SDS011;57396;48.742;9.128;2022-08-03T12:22:32;2.73;;;1.30;;
2480;SDS011;57396;48.742;9.128;2022-08-03T12:24:58;2.77;;;1.40;;
2480;SDS011;57396;48.742;9.128;2022-08-03T12:27:24;1.63;;;1.40;;
2480;SDS011;57396;48.742;9.128;2022-08-03T12:29:53;4.73;;;1.27;;
2480;SDS011;57396;48.742;9.128;2022-08-03T12:32:19;2.90;;;1.50;;
2480;SDS011;57396;48.742;9.128;2022-08-03T12:34:45;1.97;;;1.50;;
2480;SDS011;57396;48.742;9.128;2022-08-03T12:37:17;3.43;;;1.50;;
2480;SDS011;57396;48.742;9.128;2022-08-03T12:39:47;3.30;;;1.70;;
2480;SDS011;57396;48.742;9.128;2022-08-03T12:42:17;1.30;;;1.20;;
2480;SDS011;57396;48.742;9.128;2022-08-03T12:44:43;3.90;;;1.40;;
2480;SDS011;57396;48.742;9.128;2022-08-03T12:47:10;6.50;;;1.50;;
2480;SDS011;57396;48.742;9.128;2022-08-03T12:49:45;1.50;;;1.40;;
2480;SDS011;57396;48.742;9.128;2022-08-03T12:52:15;2.20;;;1.27;;
2480;SDS011;57396;48.742;9.128;2022-08-03T12:54:41;2.27;;;1.30;;
2480;SDS011;57396;48.742;9.128;2022-08-03T12:59:38;2.17;;;1.33;;
2480;SDS011;57396;48.742;9.128;2022-08-03T13:02:22;3.00;;;1.50;;
2480;SDS011;57396;48.742;9.128;2022-08-03T13:04:49;1.73;;;1.20;;
2480;SDS011;57396;48.742;9.128;2022-08-03T13:07:16;1.20;;;1.10;;
2480;SDS011;57396;48.742;9.128;2022-08-03T13:09:45;1.50;;;1.40;;
2480;SDS011;57396;48.742;9.128;2022-08-03T13:12:19;1.20;;;1.10;;
2480;SDS011;57396;48.742;9.128;2022-08-03T13:14:46;3.73;;;1.50;;
2480;SDS011;57396;48.742;9.128;2022-08-03T13:17:13;1.37;;;1.27;;
2480;SDS011;57396;48.742;9.128;2022-08-03T13:19:41;5.50;;;1.40;;
2480;SDS011;57396;48.742;9.128;2022-08-03T13:22:10;3.53;;;1.40;;
2480;SDS011;57396;48.742;9.128;2022-08-03T13:24:36;1.70;;;1.43;;
2480;SDS011;57396;48.742;9.128;2022-08-03T13:27:02;1.67;;;1.20;;
2480;SDS011;57396;48.742;9.128;2022-08-03T13:29:29;2.03;;;1.83;;
2480;SDS011;57396;48.742;9.128;2022-08-03T13:31:54;1.50;;;1.40;;
2480;SDS011;57396;48.742;9.128;2022-08-03T13:34:20;6.10;;;1.30;;
2480;SDS011;57396;48.742;9.128;2022-08-03T13:36:45;1.83;;;1.60;;
2480;SDS011;57396;48.742;9.128;2022-08-03T13:39:11;3.13;;;1.33;;
2480;SDS011;57396;48.742;9.128;2022-08-03T13:41:36;2.23;;;1.30;;
2480;SDS011;57396;48.742;9.128;2022-08-03T13:44:01;1.63;;;1.30;;
2480;SDS011;57396;48.742;9.128;2022-08-03T13:46:27;1.20;;;1.10;;
2480;SDS011;57396;48.742;9.128;2022-08-03T13:48:52;1.47;;;1.37;;
2480;SDS011;57396;48.742;9.128;2022-08-03T13:51:18;1.87;;;1.30;;
2480;SDS011;57396;48.742;9.128;2022-08-03T13:53:43;3.43;;;1.63;;
2480;SDS011;57396;48.742;9.128;2022-08-03T13:56:09;2.17;;;1.33;;
2480;SDS011;57396;48.742;9.128;2022-08-03T13:58:34;2.03;;;1.40;;
2480;SDS011;57396;48.742;9.128;2022-08-03T14:00:59;1.67;;;1.30;;
2480;SDS011;57396;48.742;9.128;2022-08-03T14:03:25;1.93;;;1.40;;
2480;SDS011;57396;48.742;9.128;2022-08-03T14:05:50;1.67;;;1.53;;
2480;SDS011;57396;48.742;9.128;2022-08-03T14:08:16;1.73;;;1.57;;
2480;SDS011;57396;48.742;9.128;2022-08-03T14:10:42;1.87;;;1.40;;
2480;SDS011;57396;48.742;9.128;2022-08-03T14:13:09;1.27;;;1.17;;
2480;SDS011;57396;48.742;9.128;2022-08-03T14:15:36;2.20;;;1.50;;
2480;SDS011;57396;48.742;9.128;2022-08-03T14:18:01;2.03;;;1.40;;
2480;SDS011;57396;48.742;9.128;2022-08-03T14:20:26;1.67;;;1.40;;
2480;SDS011;57396;48.742;9.128;2022-08-03T14:22:53;1.50;;;1.20;;
2480;SDS011;57396;48.742;9.128;2022-08-03T14:25:19;1.80;;;1.60;;
2480;SDS011;57396;48.742;9.128;2022-08-03T14:27:45;2.00;;;1.53;;
2480;SDS011;57396;48.742;9.128;2022-08-03T14:30:10;1.80;;;1.50;;
2480;SDS011;57396;48.742;9.128;2022-08-03T14:32:36;3.77;;;1.67;;
2480;SDS011;57396;48.742;9.128;2022-08-03T14:35:02;1.60;;;1.50;;
2480;SDS011;57396;48.742;9.128;2022-08-03T14:37:27;1.77;;;1.67;;
2480;SDS011;57396;48.742;9.128;2022-08-03T14:39:53;1.47;;;1.30;;
2480;SDS011;57396;48.742;9.128;2022-08-03T14:42:18;6.37;;;1.63;;
2480;SDS011;57396;48.742;9.128;2022-08-03T14:44:44;1.97;;;1.50;;
2480;SDS011;57396;48.742;9.128;2022-08-03T14:47:10;1.77;;;1.40;;
2480;SDS011;57396;48.742;9.128;2022-08-03T14:49:35;2.03;;;1.30;;
2480;SDS011;57396;48.742;9.128;2022-08-03T14:52:02;4.17;;;1.37;;
2480;SDS011;57396;48.742;9.128;2022-08-03T14:54:28;2.33;;;1.50;;
2480;SDS011;57396;48.742;9.128;2022-08-03T14:56:55;1.53;;;1.43;;
2480;SDS011;57396;48.742;9.128;2022-08-03T14:59:21;2.27;;;1.40;;
2480;SDS011;57396;48.742;9.128;2022-08-03T15:01:46;2.60;;;1.50;;
2480;SDS011;57396;48.742;9.128;2022-08-03T15:04:12;1.90;;;1.80;;
2480;SDS011;57396;48.742;9.128;2022-08-03T15:06:37;2.23;;;1.63;;
2480;SDS011;57396;48.742;9.128;2022-08-03T15:09:03;4.57;;;1.70;;
2480;SDS011;57396;48.742;9.128;2022-08-03T15:11:28;2.37;;;1.37;;
2480;SDS011;57396;48.742;9.128;2022-08-03T15:13:54;1.70;;;1.30;;
2480;SDS011;57396;48.742;9.128;2022-08-03T15:16:19;6.70;;;1.50;;
2480;SDS011;57396;48.742;9.128;2022-08-03T15:18:45;1.50;;;1.40;;
2480;SDS011;57396;48.742;9.128;2022-08-03T15:21:10;2.87;;;1.20;;
2480;SDS011;57396;48.742;9.128;2022-08-03T15:23:36;1.90;;;1.67;;
2480;SDS011;57396;48.742;9.128;2022-08-03T15:26:01;1.50;;;1.40;;
2480;SDS011;57396;48.742;9.128;2022-08-03T15:28:27;4.37;;;1.53;;
2480;SDS011;57396;48.742;9.128;2022-08-03T15:30:52;2.80;;;1.50;;
2480;SDS011;57396;48.742;9.128;2022-08-03T15:33:18;1.63;;;1.53;;
2480;SDS011;57396;48.742;9.128;2022-08-03T15:35:43;2.80;;;1.33;;
2480;SDS011;57396;48.742;9.128;2022-08-03T15:38:10;3.90;;;1.80;;